sensor_id;sensor_type;location;lat;lon;timestamp;temperature;humidity
43151;DHT22;28755;51.478;5.702;2023-07-13T00:02:23;16.70;99.90
43151;DHT22;28755;51.478;5.702;2023-07-13T00:04:48;16.60;99.90
43151;DHT22;28755;51.478;5.702;2023-07-13T00:07:14;16.60;99.90
43151;DHT22;28755;51.478;5.702;2023-07-13T00:09:40;16.60;99.90
43151;DHT22;28755;51.478;5.702;2023-07-13T00:12:28;16.60;99.90
43151;DHT22;28755;51.478;5.702;2023-07-13T00:14:59;16.60;99.90
43151;DHT22;28755;51.478;5.702;2023-07-13T00:17:26;16.60;99.90
43151;DHT22;28755;51.478;5.702;2023-07-13T00:19:52;16.60;99.90
43151;DHT22;28755;51.478;5.702;2023-07-13T00:22:18;16.50;99.90
43151;DHT22;28755;51.478;5.702;2023-07-13T00:24:45;16.50;99.90
43151;DHT22;28755;51.478;5.702;2023-07-13T00:27:11;16.50;99.90
43151;DHT22;28755;51.478;5.702;2023-07-13T00:29:37;16.40;99.90
43151;DHT22;28755;51.478;5.702;2023-07-13T00:32:04;16.40;99.90
43151;DHT22;28755;51.478;5.702;2023-07-13T00:34:30;16.40;99.90
43151;DHT22;28755;51.478;5.702;2023-07-13T00:36:57;16.40;99.90
43151;DHT22;28755;51.478;5.702;2023-07-13T00:39:22;16.40;99.90
43151;DHT22;28755;51.478;5.702;2023-07-13T00:41:48;16.40;99.90
43151;DHT22;28755;51.478;5.702;2023-07-13T00:44:15;16.40;99.90
43151;DHT22;28755;51.478;5.702;2023-07-13T00:46:41;16.30;99.90
43151;DHT22;28755;51.478;5.702;2023-07-13T00:49:09;16.30;99.90
43151;DHT22;28755;51.478;5.702;2023-07-13T00:54:17;16.30;99.90
43151;DHT22;28755;51.478;5.702;2023-07-13T00:56:45;16.30;99.90
43151;DHT22;28755;51.478;5.702;2023-07-13T00:59:12;16.20;99.90
43151;DHT22;28755;51.478;5.702;2023-07-13T01:01:39;16.20;99.90
43151;DHT22;28755;51.478;5.702;2023-07-13T01:04:05;16.20;99.90
43151;DHT22;28755;51.478;5.702;2023-07-13T01:06:35;16.00;99.90
43151;DHT22;28755;51.478;5.702;2023-07-13T01:09:01;16.00;99.90
43151;DHT22;28755;51.478;5.702;2023-07-13T01:11:28;16.00;99.90
43151;DHT22;28755;51.478;5.702;2023-07-13T01:13:53;15.90;99.90
43151;DHT22;28755;51.478;5.702;2023-07-13T01:16:26;15.90;99.90
43151;DHT22;28755;51.478;5.702;2023-07-13T01:18:53;15.90;99.90
43151;DHT22;28755;51.478;5.702;2023-07-13T01:21:18;16.00;99.90
43151;DHT22;28755;51.478;5.702;2023-07-13T01:23:45;15.90;99.90
43151;DHT22;28755;51.478;5.702;2023-07-13T01:26:11;16.00;99.90
43151;DHT22;28755;51.478;5.702;2023-07-13T01:28:37;15.90;99.90
43151;DHT22;28755;51.478;5.702;2023-07-13T01:31:03;15.90;99.90
43151;DHT22;28755;51.478;5.702;2023-07-13T01:33:29;15.90;99.90
43151;DHT22;28755;51.478;5.702;2023-07-13T01:35:55;15.90;99.90
43151;DHT22;28755;51.478;5.702;2023-07-13T01:38:23;15.80;99.90
43151;DHT22;28755;51.478;5.702;2023-07-13T01:40:50;15.70;99.90
43151;DHT22;28755;51.478;5.702;2023-07-13T01:43:16;15.70;99.90
43151;DHT22;28755;51.478;5.702;2023-07-13T01:45:42;15.70;99.90
43151;DHT22;28755;51.478;5.702;2023-07-13T01:48:09;15.60;99.90
43151;DHT22;28755;51.478;5.702;2023-07-13T01:50:36;15.60;99.90
43151;DHT22;28755;51.478;5.702;2023-07-13T01:53:02;15.60;99.90
43151;DHT22;28755;51.478;5.702;2023-07-13T01:55:28;15.50;99.90
43151;DHT22;28755;51.478;5.702;2023-07-13T01:57:55;15.60;99.90
43151;DHT22;28755;51.478;5.702;2023-07-13T02:00:20;15.60;99.90
43151;DHT22;28755;51.478;5.702;2023-07-13T02:02:46;15.50;99.90
43151;DHT22;28755;51.478;5.702;2023-07-13T02:05:13;15.50;99.90
43151;DHT22;28755;51.478;5.702;2023-07-13T02:07:39;15.50;99.90
43151;DHT22;28755;51.478;5.702;2023-07-13T02:10:06;15.50;99.90
43151;DHT22;28755;51.478;5.702;2023-07-13T02:12:33;15.50;99.90
43151;DHT22;28755;51.478;5.702;2023-07-13T02:14:58;15.60;99.90
43151;DHT22;28755;51.478;5.702;2023-07-13T02:17:25;15.50;99.90
43151;DHT22;28755;51.478;5.702;2023-07-13T02:19:50;15.60;99.90
43151;DHT22;28755;51.478;5.702;2023-07-13T02:22:16;15.40;99.90
43151;DHT22;28755;51.478;5.702;2023-07-13T02:24:42;15.40;99.90
43151;DHT22;28755;51.478;5.702;2023-07-13T02:27:07;15.40;99.90
43151;DHT22;28755;51.478;5.702;2023-07-13T02:29:33;15.30;99.90
43151;DHT22;28755;51.478;5.702;2023-07-13T02:31:59;15.30;99.90
43151;DHT22;28755;51.478;5.702;2023-07-13T02:34:24;15.20;99.90
43151;DHT22;28755;51.478;5.702;2023-07-13T02:36:50;15.30;99.90
43151;DHT22;28755;51.478;5.702;2023-07-13T02:39:16;15.20;99.90
43151;DHT22;28755;51.478;5.702;2023-07-13T02:41:41;15.20;99.90
43151;DHT22;28755;51.478;5.702;2023-07-13T02:44:07;15.20;99.90
43151;DHT22;28755;51.478;5.702;2023-07-13T02:46:35;15.20;99.90
43151;DHT22;28755;51.478;5.702;2023-07-13T02:49:02;15.20;99.90
43151;DHT22;28755;51.478;5.702;2023-07-13T02:51:27;15.20;99.90
43151;DHT22;28755;51.478;5.702;2023-07-13T02:53:54;15.30;99.90
43151;DHT22;28755;51.478;5.702;2023-07-13T02:56:24;15.20;99.90
43151;DHT22;28755;51.478;5.702;2023-07-13T02:58:50;15.10;99.90
43151;DHT22;28755;51.478;5.702;2023-07-13T03:01:15;15.10;99.90
43151;DHT22;28755;51.478;5.702;2023-07-13T03:03:44;15.10;99.90
43151;DHT22;28755;51.478;5.702;2023-07-13T03:06:11;15.10;99.90
43151;DHT22;28755;51.478;5.702;2023-07-13T03:08:37;15.10;99.90
43151;DHT22;28755;51.478;5.702;2023-07-13T03:11:05;15.10;99.90
43151;DHT22;28755;51.478;5.702;2023-07-13T03:13:31;15.10;99.90
43151;DHT22;28755;51.478;5.702;2023-07-13T03:15:57;15.00;99.90
43151;DHT22;28755;51.478;5.702;2023-07-13T03:18:23;15.00;99.90
43151;DHT22;28755;51.478;5.702;2023-07-13T03:20:52;15.10;99.90
43151;DHT22;28755;51.478;5.702;2023-07-13T03:23:18;15.00;99.90
43151;DHT22;28755;51.478;5.702;2023-07-13T03:25:44;15.00;99.90
43151;DHT22;28755;51.478;5.702;2023-07-13T03:28:11;15.00;99.90
43151;DHT22;28755;51.478;5.702;2023-07-13T03:30:37;15.00;99.90
43151;DHT22;28755;51.478;5.702;2023-07-13T03:33:03;14.90;99.90
43151;DHT22;28755;51.478;5.702;2023-07-13T03:35:28;15.00;99.90
43151;DHT22;28755;51.478;5.702;2023-07-13T03:37:54;15.00;99.90
43151;DHT22;28755;51.478;5.702;2023-07-13T03:40:20;14.90;99.90
43151;DHT22;28755;51.478;5.702;2023-07-13T03:42:46;15.00;99.90
43151;DHT22;28755;51.478;5.702;2023-07-13T03:45:12;14.90;99.90
43151;DHT22;28755;51.478;5.702;2023-07-13T03:47:37;14.90;99.90
43151;DHT22;28755;51.478;5.702;2023-07-13T03:50:03;14.90;99.90
43151;DHT22;28755;51.478;5.702;2023-07-13T03:52:29;14.90;99.90
43151;DHT22;28755;51.478;5.702;2023-07-13T03:54:55;14.90;99.90
43151;DHT22;28755;51.478;5.702;2023-07-13T03:57:20;14.80;99.90
43151;DHT22;28755;51.478;5.702;2023-07-13T03:59:46;14.80;99.90
43151;DHT22;28755;51.478;5.702;2023-07-13T04:02:11;14.80;99.90
43151;DHT22;28755;51.478;5.702;2023-07-13T04:04:37;14.80;99.90
43151;DHT22;28755;51.478;5.702;2023-07-13T04:07:06;14.80;99.90
43151;DHT22;28755;51.478;5.702;2023-07-13T04:09:34;14.80;99.90
43151;DHT22;28755;51.478;5.702;2023-07-13T04:11:59;14.70;99.90
43151;DHT22;28755;51.478;5.702;2023-07-13T04:14:25;14.70;99.90
43151;DHT22;28755;51.478;5.702;2023-07-13T04:16:51;14.60;99.90
43151;DHT22;28755;51.478;5.702;2023-07-13T04:19:16;14.70;99.90
43151;DHT22;28755;51.478;5.702;2023-07-13T04:21:42;14.70;99.90
43151;DHT22;28755;51.478;5.702;2023-07-13T04:24:08;14.70;99.90
43151;DHT22;28755;51.478;5.702;2023-07-13T04:26:34;14.80;99.90
43151;DHT22;28755;51.478;5.702;2023-07-13T04:29:01;14.80;99.90
43151;DHT22;28755;51.478;5.702;2023-07-13T04:31:29;14.90;99.90
43151;DHT22;28755;51.478;5.702;2023-07-13T04:33:55;15.00;99.90
43151;DHT22;28755;51.478;5.702;2023-07-13T04:36:21;15.00;99.90
43151;DHT22;28755;51.478;5.702;2023-07-13T04:38:46;15.10;99.90
43151;DHT22;28755;51.478;5.702;2023-07-13T04:41:13;15.10;99.90
43151;DHT22;28755;51.478;5.702;2023-07-13T04:43:40;15.20;99.90
43151;DHT22;28755;51.478;5.702;2023-07-13T04:46:07;15.10;99.90
43151;DHT22;28755;51.478;5.702;2023-07-13T04:48:34;15.20;99.90
43151;DHT22;28755;51.478;5.702;2023-07-13T04:50:59;15.40;99.90
43151;DHT22;28755;51.478;5.702;2023-07-13T04:53:26;15.40;99.90
43151;DHT22;28755;51.478;5.702;2023-07-13T04:55:52;15.40;99.90
43151;DHT22;28755;51.478;5.702;2023-07-13T04:58:17;15.50;99.90
43151;DHT22;28755;51.478;5.702;2023-07-13T05:00:43;15.50;99.90
43151;DHT22;28755;51.478;5.702;2023-07-13T05:03:09;15.60;99.90
43151;DHT22;28755;51.478;5.702;2023-07-13T05:05:35;15.60;99.90
43151;DHT22;28755;51.478;5.702;2023-07-13T05:08:00;15.70;99.90
43151;DHT22;28755;51.478;5.702;2023-07-13T05:10:26;15.70;99.90
43151;DHT22;28755;51.478;5.702;2023-07-13T05:12:52;15.70;99.90
43151;DHT22;28755;51.478;5.702;2023-07-13T05:15:18;15.80;99.90
43151;DHT22;28755;51.478;5.702;2023-07-13T05:17:47;15.80;99.90
43151;DHT22;28755;51.478;5.702;2023-07-13T05:20:13;15.90;99.90
43151;DHT22;28755;51.478;5.702;2023-07-13T05:22:39;16.00;99.90
43151;DHT22;28755;51.478;5.702;2023-07-13T05:25:06;16.10;99.90
43151;DHT22;28755;51.478;5.702;2023-07-13T05:27:33;16.20;99.90
43151;DHT22;28755;51.478;5.702;2023-07-13T05:29:58;16.30;99.90
43151;DHT22;28755;51.478;5.702;2023-07-13T05:32:24;16.30;99.90
43151;DHT22;28755;51.478;5.702;2023-07-13T05:34:49;16.40;99.90
43151;DHT22;28755;51.478;5.702;2023-07-13T05:37:15;16.50;99.90
43151;DHT22;28755;51.478;5.702;2023-07-13T05:39:41;16.50;99.90
43151;DHT22;28755;51.478;5.702;2023-07-13T05:42:07;16.60;99.90
43151;DHT22;28755;51.478;5.702;2023-07-13T05:44:33;16.70;99.90
43151;DHT22;28755;51.478;5.702;2023-07-13T05:46:58;16.70;99.90
43151;DHT22;28755;51.478;5.702;2023-07-13T05:49:24;16.80;99.90
43151;DHT22;28755;51.478;5.702;2023-07-13T05:51:49;16.90;99.90
43151;DHT22;28755;51.478;5.702;2023-07-13T05:54:15;17.10;99.90
43151;DHT22;28755;51.478;5.702;2023-07-13T05:56:41;17.20;99.90
43151;DHT22;28755;51.478;5.702;2023-07-13T05:59:06;17.20;99.90
43151;DHT22;28755;51.478;5.702;2023-07-13T06:01:32;17.20;99.90
43151;DHT22;28755;51.478;5.702;2023-07-13T06:03:58;17.30;99.90
43151;DHT22;28755;51.478;5.702;2023-07-13T06:06:24;17.30;99.90
43151;DHT22;28755;51.478;5.702;2023-07-13T06:08:49;17.30;99.90
43151;DHT22;28755;51.478;5.702;2023-07-13T06:11:21;17.30;99.90
43151;DHT22;28755;51.478;5.702;2023-07-13T06:13:47;17.20;99.90
43151;DHT22;28755;51.478;5.702;2023-07-13T06:16:13;17.30;99.90
43151;DHT22;28755;51.478;5.702;2023-07-13T06:18:40;17.10;99.90
43151;DHT22;28755;51.478;5.702;2023-07-13T06:21:09;17.10;99.90
43151;DHT22;28755;51.478;5.702;2023-07-13T06:23:36;17.10;99.90
43151;DHT22;28755;51.478;5.702;2023-07-13T06:26:03;17.30;99.90
43151;DHT22;28755;51.478;5.702;2023-07-13T06:28:29;17.40;99.90
43151;DHT22;28755;51.478;5.702;2023-07-13T06:30:55;17.50;99.90
43151;DHT22;28755;51.478;5.702;2023-07-13T06:33:21;17.70;99.90
43151;DHT22;28755;51.478;5.702;2023-07-13T06:35:46;17.70;99.90
43151;DHT22;28755;51.478;5.702;2023-07-13T06:38:12;17.70;99.90
43151;DHT22;28755;51.478;5.702;2023-07-13T06:40:37;17.70;99.90
43151;DHT22;28755;51.478;5.702;2023-07-13T06:43:03;17.70;99.90
43151;DHT22;28755;51.478;5.702;2023-07-13T06:45:29;17.60;99.90
43151;DHT22;28755;51.478;5.702;2023-07-13T06:47:54;17.60;99.90
43151;DHT22;28755;51.478;5.702;2023-07-13T06:50:20;17.70;99.90
43151;DHT22;28755;51.478;5.702;2023-07-13T06:52:46;17.90;99.90
43151;DHT22;28755;51.478;5.702;2023-07-13T06:55:11;18.00;99.90
43151;DHT22;28755;51.478;5.702;2023-07-13T06:57:37;18.00;99.90
43151;DHT22;28755;51.478;5.702;2023-07-13T07:00:03;18.00;99.90
43151;DHT22;28755;51.478;5.702;2023-07-13T07:02:28;18.00;99.90
43151;DHT22;28755;51.478;5.702;2023-07-13T07:04:54;17.90;99.90
43151;DHT22;28755;51.478;5.702;2023-07-13T07:07:20;17.90;99.90
43151;DHT22;28755;51.478;5.702;2023-07-13T07:09:48;17.80;99.90
43151;DHT22;28755;51.478;5.702;2023-07-13T07:12:14;17.90;99.90
43151;DHT22;28755;51.478;5.702;2023-07-13T07:14:40;17.80;99.90
43151;DHT22;28755;51.478;5.702;2023-07-13T07:17:05;17.80;99.90
43151;DHT22;28755;51.478;5.702;2023-07-13T07:19:31;17.80;99.90
43151;DHT22;28755;51.478;5.702;2023-07-13T07:21:56;18.00;99.90
43151;DHT22;28755;51.478;5.702;2023-07-13T07:24:22;18.00;99.90
43151;DHT22;28755;51.478;5.702;2023-07-13T07:26:48;18.00;99.90
43151;DHT22;28755;51.478;5.702;2023-07-13T07:29:13;18.30;99.90
43151;DHT22;28755;51.478;5.702;2023-07-13T07:31:39;18.50;99.90
43151;DHT22;28755;51.478;5.702;2023-07-13T07:34:04;18.60;99.90
43151;DHT22;28755;51.478;5.702;2023-07-13T07:36:30;18.70;99.90
43151;DHT22;28755;51.478;5.702;2023-07-13T07:38:56;18.80;99.90
43151;DHT22;28755;51.478;5.702;2023-07-13T07:41:21;18.80;99.90
43151;DHT22;28755;51.478;5.702;2023-07-13T07:43:47;18.80;99.90
43151;DHT22;28755;51.478;5.702;2023-07-13T07:46:13;18.80;99.90
43151;DHT22;28755;51.478;5.702;2023-07-13T07:48:38;18.70;99.90
43151;DHT22;28755;51.478;5.702;2023-07-13T07:51:04;18.70;99.90
43151;DHT22;28755;51.478;5.702;2023-07-13T07:53:30;18.70;99.90
43151;DHT22;28755;51.478;5.702;2023-07-13T07:55:55;18.70;99.90
43151;DHT22;28755;51.478;5.702;2023-07-13T07:58:21;18.70;99.90
43151;DHT22;28755;51.478;5.702;2023-07-13T08:00:47;18.80;99.90
43151;DHT22;28755;51.478;5.702;2023-07-13T08:03:13;18.80;99.90
43151;DHT22;28755;51.478;5.702;2023-07-13T08:05:38;19.00;99.90
43151;DHT22;28755;51.478;5.702;2023-07-13T08:08:04;19.30;99.90
43151;DHT22;28755;51.478;5.702;2023-07-13T08:13:30;19.80;99.90
43151;DHT22;28755;51.478;5.702;2023-07-13T08:15:59;20.10;99.90
43151;DHT22;28755;51.478;5.702;2023-07-13T08:18:25;19.90;99.90
43151;DHT22;28755;51.478;5.702;2023-07-13T08:21:20;20.10;99.90
43151;DHT22;28755;51.478;5.702;2023-07-13T08:23:46;20.20;99.90
43151;DHT22;28755;51.478;5.702;2023-07-13T08:26:11;20.50;99.90
43151;DHT22;28755;51.478;5.702;2023-07-13T08:28:37;20.50;99.90
43151;DHT22;28755;51.478;5.702;2023-07-13T08:31:05;20.70;99.90
43151;DHT22;28755;51.478;5.702;2023-07-13T08:33:33;20.90;99.90
43151;DHT22;28755;51.478;5.702;2023-07-13T08:35:59;20.90;99.90
43151;DHT22;28755;51.478;5.702;2023-07-13T08:38:25;20.80;99.90
43151;DHT22;28755;51.478;5.702;2023-07-13T08:40:56;21.00;99.90
43151;DHT22;28755;51.478;5.702;2023-07-13T08:43:35;21.20;99.90
43151;DHT22;28755;51.478;5.702;2023-07-13T08:48:48;21.80;99.90
43151;DHT22;28755;51.478;5.702;2023-07-13T08:51:36;21.90;99.90
43151;DHT22;28755;51.478;5.702;2023-07-13T08:54:20;21.60;99.90
43151;DHT22;28755;51.478;5.702;2023-07-13T08:56:49;21.70;99.90
43151;DHT22;28755;51.478;5.702;2023-07-13T08:59:20;21.90;99.90
43151;DHT22;28755;51.478;5.702;2023-07-13T09:04:54;21.70;99.90
43151;DHT22;28755;51.478;5.702;2023-07-13T09:13:02;23.30;99.90
43151;DHT22;28755;51.478;5.702;2023-07-13T09:15:36;22.80;99.90
43151;DHT22;28755;51.478;5.702;2023-07-13T09:20:44;22.90;99.90
43151;DHT22;28755;51.478;5.702;2023-07-13T09:23:15;22.70;99.90
43151;DHT22;28755;51.478;5.702;2023-07-13T09:25:47;22.60;99.90
43151;DHT22;28755;51.478;5.702;2023-07-13T09:28:16;22.00;99.90
43151;DHT22;28755;51.478;5.702;2023-07-13T09:30:49;21.70;99.90
43151;DHT22;28755;51.478;5.702;2023-07-13T09:33:17;21.70;99.90
43151;DHT22;28755;51.478;5.702;2023-07-13T09:35:42;22.40;99.90
43151;DHT22;28755;51.478;5.702;2023-07-13T09:38:17;22.40;99.90
43151;DHT22;28755;51.478;5.702;2023-07-13T09:43:36;22.40;99.90
43151;DHT22;28755;51.478;5.702;2023-07-13T09:46:01;23.30;99.90
43151;DHT22;28755;51.478;5.702;2023-07-13T09:48:36;23.80;99.90
43151;DHT22;28755;51.478;5.702;2023-07-13T09:51:14;24.00;99.90
43151;DHT22;28755;51.478;5.702;2023-07-13T09:53:42;23.80;99.90
43151;DHT22;28755;51.478;5.702;2023-07-13T09:56:43;24.20;99.90
43151;DHT22;28755;51.478;5.702;2023-07-13T09:59:22;24.70;99.90
43151;DHT22;28755;51.478;5.702;2023-07-13T10:01:50;24.70;99.90
43151;DHT22;28755;51.478;5.702;2023-07-13T10:04:19;24.70;99.90
43151;DHT22;28755;51.478;5.702;2023-07-13T10:06:46;25.40;99.90
43151;DHT22;28755;51.478;5.702;2023-07-13T10:11:30;24.80;99.90
43151;DHT22;28755;51.478;5.702;2023-07-13T10:14:00;23.80;99.90
43151;DHT22;28755;51.478;5.702;2023-07-13T10:16:31;24.50;99.90
43151;DHT22;28755;51.478;5.702;2023-07-13T10:19:04;25.40;99.90
43151;DHT22;28755;51.478;5.702;2023-07-13T10:21:56;25.40;99.90
43151;DHT22;28755;51.478;5.702;2023-07-13T10:24:31;25.20;99.90
43151;DHT22;28755;51.478;5.702;2023-07-13T10:27:15;25.10;99.90
43151;DHT22;28755;51.478;5.702;2023-07-13T10:32:51;27.20;99.90
43151;DHT22;28755;51.478;5.702;2023-07-13T10:35:19;27.80;99.90
43151;DHT22;28755;51.478;5.702;2023-07-13T10:38:04;27.60;99.90
43151;DHT22;28755;51.478;5.702;2023-07-13T10:40:41;26.90;99.90
43151;DHT22;28755;51.478;5.702;2023-07-13T10:43:39;27.20;99.90
43151;DHT22;28755;51.478;5.702;2023-07-13T10:46:08;27.20;99.90
43151;DHT22;28755;51.478;5.702;2023-07-13T10:48:35;27.10;99.90
43151;DHT22;28755;51.478;5.702;2023-07-13T10:51:05;27.10;99.90
43151;DHT22;28755;51.478;5.702;2023-07-13T10:53:35;26.10;99.90
43151;DHT22;28755;51.478;5.702;2023-07-13T10:56:16;25.80;99.90
43151;DHT22;28755;51.478;5.702;2023-07-13T10:58:45;25.70;99.90
43151;DHT22;28755;51.478;5.702;2023-07-13T11:01:17;26.10;99.90
43151;DHT22;28755;51.478;5.702;2023-07-13T11:08:57;26.20;99.90
43151;DHT22;28755;51.478;5.702;2023-07-13T11:14:00;24.50;99.90
43151;DHT22;28755;51.478;5.702;2023-07-13T11:16:38;23.90;99.90
43151;DHT22;28755;51.478;5.702;2023-07-13T11:19:24;23.30;99.90
43151;DHT22;28755;51.478;5.702;2023-07-13T11:24:58;21.00;99.90
43151;DHT22;28755;51.478;5.702;2023-07-13T11:27:42;21.30;99.90
43151;DHT22;28755;51.478;5.702;2023-07-13T11:33:01;24.50;99.90
43151;DHT22;28755;51.478;5.702;2023-07-13T11:35:31;23.80;99.90
43151;DHT22;28755;51.478;5.702;2023-07-13T11:37:58;24.00;99.90
43151;DHT22;28755;51.478;5.702;2023-07-13T11:40:27;24.70;99.90
43151;DHT22;28755;51.478;5.702;2023-07-13T11:43:02;26.20;99.90
43151;DHT22;28755;51.478;5.702;2023-07-13T11:45:32;25.90;99.90
43151;DHT22;28755;51.478;5.702;2023-07-13T11:47:58;24.40;99.90
43151;DHT22;28755;51.478;5.702;2023-07-13T11:50:26;23.30;99.90
43151;DHT22;28755;51.478;5.702;2023-07-13T11:52:53;22.60;99.90
43151;DHT22;28755;51.478;5.702;2023-07-13T11:55:22;23.40;99.90
43151;DHT22;28755;51.478;5.702;2023-07-13T11:58:09;25.10;99.90
43151;DHT22;28755;51.478;5.702;2023-07-13T12:00:35;25.20;99.90
43151;DHT22;28755;51.478;5.702;2023-07-13T12:03:03;24.60;99.90
43151;DHT22;28755;51.478;5.702;2023-07-13T12:05:30;24.80;99.90
43151;DHT22;28755;51.478;5.702;2023-07-13T12:07:57;24.80;99.90
43151;DHT22;28755;51.478;5.702;2023-07-13T12:10:28;24.30;99.90
43151;DHT22;28755;51.478;5.702;2023-07-13T12:12:58;23.80;99.90
43151;DHT22;28755;51.478;5.702;2023-07-13T12:15:43;23.30;99.90
43151;DHT22;28755;51.478;5.702;2023-07-13T12:18:18;23.20;99.90
43151;DHT22;28755;51.478;5.702;2023-07-13T12:20:45;23.10;99.90
43151;DHT22;28755;51.478;5.702;2023-07-13T12:23:29;23.10;99.90
43151;DHT22;28755;51.478;5.702;2023-07-13T12:25:57;22.70;99.90
43151;DHT22;28755;51.478;5.702;2023-07-13T12:28:33;22.40;99.90
43151;DHT22;28755;51.478;5.702;2023-07-13T12:31:01;22.30;99.90
43151;DHT22;28755;51.478;5.702;2023-07-13T12:33:29;22.30;99.90
43151;DHT22;28755;51.478;5.702;2023-07-13T12:35:57;22.30;99.90
43151;DHT22;28755;51.478;5.702;2023-07-13T12:38:24;22.30;99.90
43151;DHT22;28755;51.478;5.702;2023-07-13T12:40:51;22.10;99.90
43151;DHT22;28755;51.478;5.702;2023-07-13T12:43:20;22.10;99.90
43151;DHT22;28755;51.478;5.702;2023-07-13T12:48:54;23.20;99.90
43151;DHT22;28755;51.478;5.702;2023-07-13T12:51:24;23.60;99.90
43151;DHT22;28755;51.478;5.702;2023-07-13T12:53:58;23.50;99.90
43151;DHT22;28755;51.478;5.702;2023-07-13T12:56:32;23.30;99.90
43151;DHT22;28755;51.478;5.702;2023-07-13T12:59:02;23.10;99.90
43151;DHT22;28755;51.478;5.702;2023-07-13T13:01:32;22.90;99.90
43151;DHT22;28755;51.478;5.702;2023-07-13T13:04:01;22.80;99.90
43151;DHT22;28755;51.478;5.702;2023-07-13T13:06:32;22.90;99.90
43151;DHT22;28755;51.478;5.702;2023-07-13T13:08:59;23.00;99.90
43151;DHT22;28755;51.478;5.702;2023-07-13T13:11:26;23.10;99.90
43151;DHT22;28755;51.478;5.702;2023-07-13T13:13:52;23.40;99.90
43151;DHT22;28755;51.478;5.702;2023-07-13T13:16:29;23.40;99.90
43151;DHT22;28755;51.478;5.702;2023-07-13T13:18:59;23.40;99.90
43151;DHT22;28755;51.478;5.702;2023-07-13T13:21:28;23.30;99.90
43151;DHT22;28755;51.478;5.702;2023-07-13T13:23:53;23.10;99.90
43151;DHT22;28755;51.478;5.702;2023-07-13T13:26:21;22.90;99.90
43151;DHT22;28755;51.478;5.702;2023-07-13T13:28:46;22.40;99.90
43151;DHT22;28755;51.478;5.702;2023-07-13T13:31:15;22.30;99.90
43151;DHT22;28755;51.478;5.702;2023-07-13T13:33:43;22.00;99.90
43151;DHT22;28755;51.478;5.702;2023-07-13T13:36:22;21.90;99.90
43151;DHT22;28755;51.478;5.702;2023-07-13T13:38:49;21.60;99.90
43151;DHT22;28755;51.478;5.702;2023-07-13T13:41:15;21.60;99.90
43151;DHT22;28755;51.478;5.702;2023-07-13T13:43:42;21.50;99.90
43151;DHT22;28755;51.478;5.702;2023-07-13T13:46:15;21.40;99.90
43151;DHT22;28755;51.478;5.702;2023-07-13T13:48:42;21.30;99.90
43151;DHT22;28755;51.478;5.702;2023-07-13T13:51:22;21.30;99.90
43151;DHT22;28755;51.478;5.702;2023-07-13T13:53:49;21.10;99.90
43151;DHT22;28755;51.478;5.702;2023-07-13T13:56:15;21.10;99.90
43151;DHT22;28755;51.478;5.702;2023-07-13T13:58:42;21.00;99.90
43151;DHT22;28755;51.478;5.702;2023-07-13T14:01:21;21.00;99.90
43151;DHT22;28755;51.478;5.702;2023-07-13T14:03:48;21.10;99.90
43151;DHT22;28755;51.478;5.702;2023-07-13T14:06:16;21.10;99.90
43151;DHT22;28755;51.478;5.702;2023-07-13T14:08:43;21.20;99.90
43151;DHT22;28755;51.478;5.702;2023-07-13T14:11:13;21.20;99.90
43151;DHT22;28755;51.478;5.702;2023-07-13T14:13:43;21.40;99.90
43151;DHT22;28755;51.478;5.702;2023-07-13T14:16:18;21.60;99.90
43151;DHT22;28755;51.478;5.702;2023-07-13T14:18:45;21.70;99.90
43151;DHT22;28755;51.478;5.702;2023-07-13T14:21:16;21.70;99.90
43151;DHT22;28755;51.478;5.702;2023-07-13T14:23:44;21.80;99.90
43151;DHT22;28755;51.478;5.702;2023-07-13T14:26:23;21.80;99.90
43151;DHT22;28755;51.478;5.702;2023-07-13T14:28:54;21.70;99.90
43151;DHT22;28755;51.478;5.702;2023-07-13T14:31:20;21.50;99.90
43151;DHT22;28755;51.478;5.702;2023-07-13T14:33:46;21.50;99.90
43151;DHT22;28755;51.478;5.702;2023-07-13T14:36:28;21.40;99.90
43151;DHT22;28755;51.478;5.702;2023-07-13T14:38:56;21.40;99.90
43151;DHT22;28755;51.478;5.702;2023-07-13T14:41:22;21.40;99.90
43151;DHT22;28755;51.478;5.702;2023-07-13T14:43:48;21.20;99.90
43151;DHT22;28755;51.478;5.702;2023-07-13T14:46:31;21.20;99.90
43151;DHT22;28755;51.478;5.702;2023-07-13T14:49:11;21.10;99.90
43151;DHT22;28755;51.478;5.702;2023-07-13T14:51:38;21.20;99.90
43151;DHT22;28755;51.478;5.702;2023-07-13T14:54:05;21.20;99.90
43151;DHT22;28755;51.478;5.702;2023-07-13T14:56:31;21.40;99.90
43151;DHT22;28755;51.478;5.702;2023-07-13T14:58:57;21.50;99.90
43151;DHT22;28755;51.478;5.702;2023-07-13T15:01:23;21.70;99.90
43151;DHT22;28755;51.478;5.702;2023-07-13T15:03:51;21.80;99.90
43151;DHT22;28755;51.478;5.702;2023-07-13T15:06:17;21.80;99.90
43151;DHT22;28755;51.478;5.702;2023-07-13T15:08:44;21.80;99.90
43151;DHT22;28755;51.478;5.702;2023-07-13T15:11:10;21.70;99.90
43151;DHT22;28755;51.478;5.702;2023-07-13T15:13:40;21.70;99.90
43151;DHT22;28755;51.478;5.702;2023-07-13T15:16:24;21.80;99.90
43151;DHT22;28755;51.478;5.702;2023-07-13T15:18:50;21.90;99.90
43151;DHT22;28755;51.478;5.702;2023-07-13T15:21:22;22.00;99.90
43151;DHT22;28755;51.478;5.702;2023-07-13T15:23:48;22.00;99.90
43151;DHT22;28755;51.478;5.702;2023-07-13T15:26:16;22.20;99.90
43151;DHT22;28755;51.478;5.702;2023-07-13T15:28:44;22.10;99.90
43151;DHT22;28755;51.478;5.702;2023-07-13T15:31:19;22.10;99.90
43151;DHT22;28755;51.478;5.702;2023-07-13T15:33:45;21.80;99.90
43151;DHT22;28755;51.478;5.702;2023-07-13T15:36:14;22.00;99.90
43151;DHT22;28755;51.478;5.702;2023-07-13T15:38:39;22.30;99.90
43151;DHT22;28755;51.478;5.702;2023-07-13T15:41:23;22.40;99.90
43151;DHT22;28755;51.478;5.702;2023-07-13T15:43:51;22.30;99.90
43151;DHT22;28755;51.478;5.702;2023-07-13T15:46:19;22.20;99.90
43151;DHT22;28755;51.478;5.702;2023-07-13T15:48:46;22.20;99.90
43151;DHT22;28755;51.478;5.702;2023-07-13T15:51:28;22.00;99.90
43151;DHT22;28755;51.478;5.702;2023-07-13T15:53:57;22.20;99.90
43151;DHT22;28755;51.478;5.702;2023-07-13T15:56:28;22.20;99.90
43151;DHT22;28755;51.478;5.702;2023-07-13T15:58:56;22.30;99.90
43151;DHT22;28755;51.478;5.702;2023-07-13T16:01:22;22.30;99.90
43151;DHT22;28755;51.478;5.702;2023-07-13T16:03:49;22.40;99.90
43151;DHT22;28755;51.478;5.702;2023-07-13T16:06:22;22.20;99.90
43151;DHT22;28755;51.478;5.702;2023-07-13T16:08:49;22.40;99.90
43151;DHT22;28755;51.478;5.702;2023-07-13T16:11:27;22.60;99.90
43151;DHT22;28755;51.478;5.702;2023-07-13T16:13:56;22.50;99.90
43151;DHT22;28755;51.478;5.702;2023-07-13T16:16:26;22.30;99.90
43151;DHT22;28755;51.478;5.702;2023-07-13T16:18:54;22.10;99.90
43151;DHT22;28755;51.478;5.702;2023-07-13T16:21:22;21.90;99.90
43151;DHT22;28755;51.478;5.702;2023-07-13T16:23:48;22.00;99.90